Terminal Aerodrome Forecast
Issued by NWS

Home | Current Version | Previous Version | Text Only | Print | Product List | Glossary Off
Versions: 1 2 3 4 5 6 7 8 9 10 11 12 13 14

000
FTUS43 KPAH 021133
TAFCGI
TAF
KCGI 021133Z 0212/0312 VRB03KT 4SM BR SCT250
     FM021300 19004KT P6SM SCT045
     FM030100 14003KT P6SM SKC
     FM030900 00000KT 4SM BR SKC=

USA.gov is the U.S. government's official web portal to all federal, state and local government web resources and services.